Sky Glory — DSQP3 — position and weather

sailwx.info

Track history (hours):
 
Tides and Currents Weather Stations Pressure Air Temp Water Temp Dewpoint Dewpoint Depression Visibility Wind Speed Wind Dir Waves Ship Positions

Sky Glory

Last reported at 2018-Jun-19 18:27 UTC. Time now 2018-Jun-19 18:27 UTC.
Position N 34°37' E 134°59'.

Length 101 m; draft 5.8 m.

Type: Cargo ship. MMSI: 441654000.

Date/timePositionNaut miles runAvg speedWind from/ knotsBaromVisibWave heightAir tempDewpointWater temp
2018-Jun-19 18:27N 34°37' E 134°59'6 9.9
2018-Jun-19 17:51N 34°35' E 134°53'3 9.0
2018-Jun-19 17:30N 34°33' E 134°49'5 9.3
2018-Jun-19 16:57N 34°31' E 134°43'510.3
2018-Jun-19 16:29N 34°29' E 134°38'510.6
2018-Jun-19 16:00N 34°27' E 134°32'266 9.1
2018-Jun-18 10:39N 35°02' E 129°11'210.8
2018-Jun-18 10:30N 35°03' E 129°09'510.9
2018-Jun-18 10:01N 35°06' E 129°04'1 2.6
2018-Jun-18 09:30N 35°06' E 129°03'0 0.0
2018-Jun-18 09:00N 35°06' E 129°03'0 0.0
2018-Jun-18 08:30N 35°06' E 129°03'0 0.0
2018-Jun-18 08:00N 35°06' E 129°03'0 0.0
2018-Jun-18 07:30N 35°06' E 129°03'0 0.0
2018-Jun-18 07:00N 35°06' E 129°03'0 0.0
2018-Jun-18 06:30N 35°06' E 129°03'0 0.0
2018-Jun-18 06:00N 35°06' E 129°03'0 0.0
2018-Jun-18 05:30N 35°06' E 129°03'0 0.0
2018-Jun-18 05:00N 35°06' E 129°03'0 0.0
2018-Jun-18 04:30N 35°06' E 129°03'0 0.0
2018-Jun-18 04:00N 35°06' E 129°03'0 0.0
2018-Jun-18 03:30N 35°06' E 129°03'0 0.0
2018-Jun-18 03:00N 35°06' E 129°03'0 0.0
2018-Jun-18 02:27N 35°06' E 129°03'0 0.0
2018-Jun-18 02:00N 35°06' E 129°03'0 0.0
2018-Jun-18 01:30N 35°06' E 129°03'0 0.0
2018-Jun-18 01:00N 35°06' E 129°03'0 0.0
2018-Jun-18 00:30N 35°06' E 129°03'0 0.0
2018-Jun-18 00:00N 35°06' E 129°03'0 0.0
2018-Jun-17 23:30N 35°06' E 129°03'0 0.0
2018-Jun-17 23:00N 35°06' E 129°03'0 0.0
2018-Jun-17 22:30N 35°06' E 129°03'0 0.0
2018-Jun-17 22:00N 35°06' E 129°03'0 0.0
2018-Jun-17 21:30N 35°06' E 129°03'0 0.0
2018-Jun-17 21:00N 35°06' E 129°03'0 0.0
2018-Jun-17 20:30N 35°06' E 129°03'0 0.0
2018-Jun-17 20:00N 35°06' E 129°03'0 0.0
2018-Jun-17 19:30N 35°06' E 129°03'0 0.0
2018-Jun-17 19:00N 35°06' E 129°03'0 0.0
2018-Jun-17 18:30N 35°06' E 129°03'0 0.0
2018-Jun-17 18:00N 35°06' E 129°03'0 0.0
2018-Jun-17 17:30N 35°06' E 129°03'0 0.0
2018-Jun-17 17:00N 35°06' E 129°03'0 0.0
2018-Jun-17 16:30N 35°06' E 129°03'0 0.0
2018-Jun-17 16:00N 35°06' E 129°03'0 0.0
2018-Jun-17 15:30N 35°06' E 129°03'0 0.2
2018-Jun-17 15:01N 35°06' E 129°03'3 5.9
2018-Jun-17 14:31N 35°05' E 129°06'255 9.9
2018-Jun-16 12:55N 34°25' E 134°12'613.3
2018-Jun-16 12:29N 34°24' E 134°19'612.3
2018-Jun-16 12:00N 34°26' E 134°26'612.0
2018-Jun-16 11:30N 34°29' E 134°32'612.3
2018-Jun-16 11:00N 34°31' E 134°39'612.5
2018-Jun-16 10:30N 34°33' E 134°46'612.9
2018-Jun-16 10:00N 34°36' E 134°53'710.8
2018-Jun-16 09:19N 34°37' E 135°02'3 8.6
2018-Jun-16 08:59N 34°36' E 135°05'510.3
2018-Jun-16 08:29N 34°36' E 135°12'5 9.5
2018-Jun-16 08:00N 34°39' E 135°16'3 6.7
2018-Jun-16 07:30N 34°42' E 135°13'0 0.1
2018-Jun-16 07:00N 34°42' E 135°13'0 0.0
2018-Jun-16 06:30N 34°42' E 135°13'0 0.0
2018-Jun-16 06:00N 34°42' E 135°13'0 0.0
2018-Jun-16 05:30N 34°42' E 135°13'0 0.0
2018-Jun-16 05:00N 34°42' E 135°13'0 0.0
2018-Jun-16 04:30N 34°42' E 135°13'0 0.0
2018-Jun-16 03:54N 34°42' E 135°13'0 0.0
2018-Jun-16 03:24N 34°42' E 135°13'0 0.0
2018-Jun-16 03:00N 34°42' E 135°13'0 0.0
2018-Jun-16 02:30N 34°42' E 135°13'0 0.0
2018-Jun-16 02:00N 34°42' E 135°13'0 0.0
2018-Jun-16 01:30N 34°42' E 135°13'0 0.0
2018-Jun-16 01:00N 34°42' E 135°13'0 0.0
2018-Jun-16 00:30N 34°42' E 135°13'0 0.0
2018-Jun-16 00:00N 34°42' E 135°13'0 0.0
2018-Jun-15 23:30N 34°42' E 135°13'0 0.0
2018-Jun-15 23:00N 34°42' E 135°13'0 0.0
2018-Jun-15 22:30N 34°42' E 135°13'0 0.0
2018-Jun-15 22:00N 34°42' E 135°13'0 0.0
2018-Jun-15 21:24N 34°42' E 135°13'0 0.0
2018-Jun-15 21:00N 34°42' E 135°13'0 0.0
2018-Jun-15 20:30N 34°42' E 135°13'0 0.0
2018-Jun-15 19:48N 34°42' E 135°13'0 0.0
2018-Jun-15 19:24N 34°42' E 135°13'0 0.0
2018-Jun-15 19:00N 34°42' E 135°13'0 0.0
2018-Jun-15 18:24N 34°42' E 135°13'0 0.0
2018-Jun-15 17:48N 34°42' E 135°13'0 0.0
2018-Jun-15 17:30N 34°42' E 135°13'0 0.0
2018-Jun-15 17:00N 34°42' E 135°13'0 0.0
2018-Jun-15 16:18N 34°42' E 135°13'0 0.0
2018-Jun-15 16:00N 34°42' E 135°13'0 0.0
2018-Jun-15 15:30N 34°42' E 135°13'0 0.0
2018-Jun-15 15:00N 34°42' E 135°13'0 0.0
2018-Jun-15 14:30N 34°42' E 135°13'0 0.0
2018-Jun-15 14:00N 34°42' E 135°13'0 0.0
2018-Jun-15 13:30N 34°42' E 135°13'0 0.0
2018-Jun-15 13:00N 34°42' E 135°13'0 0.0
2018-Jun-15 12:30N 34°42' E 135°13'0 0.0
2018-Jun-15 12:00N 34°42' E 135°13'0 0.0
2018-Jun-15 11:27N 34°42' E 135°13'0 0.0
2018-Jun-15 10:54N 34°42' E 135°13'0 0.0
2018-Jun-15 10:30N 34°42' E 135°13'0 0.0
2018-Jun-15 10:00N 34°42' E 135°13'0 0.0
2018-Jun-15 09:30N 34°42' E 135°13'0 0.0
2018-Jun-15 08:54N 34°42' E 135°13'0 0.0
2018-Jun-15 08:30N 34°42' E 135°13'0 0.0
2018-Jun-15 08:00N 34°42' E 135°13'0 0.0
2018-Jun-15 07:30N 34°42' E 135°13'0 0.0
2018-Jun-15 07:00N 34°42' E 135°13'0 0.0
2018-Jun-15 06:24N 34°42' E 135°13'0 0.0
2018-Jun-15 06:00N 34°42' E 135°13'0 0.0
2018-Jun-15 05:30N 34°42' E 135°13'0 0.0
2018-Jun-15 04:54N 34°42' E 135°13'0 0.0
2018-Jun-15 04:30N 34°42' E 135°13'0 0.0
2018-Jun-15 04:00N 34°42' E 135°13'0 0.0
2018-Jun-15 03:06N 34°42' E 135°13'0 0.0
2018-Jun-15 03:00N 34°42' E 135°13'0 0.0
2018-Jun-15 02:30N 34°42' E 135°13'0 0.0
2018-Jun-15 02:00N 34°42' E 135°13'0 0.0
2018-Jun-15 01:30N 34°42' E 135°13'0 0.0
2018-Jun-15 01:00N 34°42' E 135°13'0 0.0
2018-Jun-15 00:24N 34°42' E 135°13'0 0.0
2018-Jun-14 23:24N 34°42' E 135°13'0 0.0
2018-Jun-14 23:00N 34°42' E 135°13'0 0.0
2018-Jun-14 22:30N 34°42' E 135°13'0 0.0
2018-Jun-14 22:00N 34°42' E 135°13'0 0.0
2018-Jun-14 21:30N 34°42' E 135°13'0 0.0
2018-Jun-14 21:00N 34°42' E 135°13'0 0.0
2018-Jun-14 20:24N 34°42' E 135°13'0 0.0
2018-Jun-14 20:00N 34°42' E 135°13'0 0.0
2018-Jun-14 19:24N 34°42' E 135°13'0 0.0
2018-Jun-14 19:00N 34°42' E 135°13'0 0.0
2018-Jun-14 18:30N 34°42' E 135°13'0 0.0
2018-Jun-14 17:54N 34°42' E 135°13'0 0.0
2018-Jun-14 17:30N 34°42' E 135°13'0 0.0
2018-Jun-14 17:00N 34°42' E 135°13'0 0.0
2018-Jun-14 16:30N 34°42' E 135°13'0 0.0
2018-Jun-14 15:54N 34°42' E 135°13'0 0.0
2018-Jun-14 15:24N 34°42' E 135°13'0 0.0
2018-Jun-14 15:00N 34°42' E 135°13'0 0.0
2018-Jun-14 14:30N 34°42' E 135°13'0 0.0
2018-Jun-14 14:00N 34°42' E 135°13'0 0.0
2018-Jun-14 13:24N 34°42' E 135°13'0 0.0
2018-Jun-14 13:00N 34°42' E 135°13'0 0.0
2018-Jun-14 12:30N 34°42' E 135°13'0 0.0
2018-Jun-14 11:57N 34°42' E 135°13'0 0.0
2018-Jun-14 11:30N 34°42' E 135°13'0 0.0
2018-Jun-14 11:00N 34°42' E 135°13'0 0.0
2018-Jun-14 10:30N 34°42' E 135°13'0 0.0
2018-Jun-14 10:00N 34°42' E 135°13'0 0.0
2018-Jun-14 09:18N 34°42' E 135°13'0 0.0
2018-Jun-14 08:54N 34°42' E 135°13'0 0.0
2018-Jun-14 08:12N 34°42' E 135°13'0 0.0
2018-Jun-14 07:57N 34°42' E 135°13'0 0.1
2018-Jun-14 07:30N 34°42' E 135°13'2 3.0
2018-Jun-14 07:00N 34°40' E 135°15'5 9.5
2018-Jun-14 06:30N 34°38' E 135°20'510.2
2018-Jun-14 06:00N 34°39' E 135°26'0 0.1
2018-Jun-14 02:27N 34°39' E 135°27'0 0.0
2018-Jun-14 01:54N 34°39' E 135°27'0 0.0
2018-Jun-14 01:09N 34°39' E 135°27'0 0.0
2018-Jun-14 00:57N 34°39' E 135°27'0 0.0
2018-Jun-14 00:27N 34°39' E 135°27'0 0.0
2018-Jun-13 23:45N 34°39' E 135°27'0 0.0
2018-Jun-13 23:27N 34°39' E 135°27'0 0.0
2018-Jun-13 22:51N 34°39' E 135°27'0 0.0
2018-Jun-13 22:27N 34°39' E 135°27'0 0.0
2018-Jun-13 22:00N 34°39' E 135°27'1 2.2
2018-Jun-13 21:29N 34°39' E 135°25'3 5.9
2018-Jun-13 21:00N 34°37' E 135°22'0 0.0
2018-Jun-13 20:30N 34°37' E 135°22'0 0.0
2018-Jun-13 20:00N 34°37' E 135°22'0 0.0
2018-Jun-13 19:30N 34°37' E 135°22'0 0.0
2018-Jun-13 18:57N 34°37' E 135°22'0 0.0
2018-Jun-13 18:30N 34°37' E 135°22'2 4.8
2018-Jun-13 18:00N 34°36' E 135°20'611.2
2018-Jun-13 17:30N 34°35' E 135°13'611.9
2018-Jun-13 17:00N 34°35' E 135°06'714.0
2018-Jun-13 16:30N 34°37' E 134°58'712.9
2018-Jun-13 15:59N 34°34' E 134°50'511.0
2018-Jun-13 15:30N 34°32' E 134°45'610.7
2018-Jun-13 14:58N 34°29' E 134°38'510.9
2018-Jun-13 14:28N 34°27' E 134°32'267 9.0
2018-Jun-12 08:56N 35°01' E 129°10'410.3
2018-Jun-12 08:31N 35°04' E 129°07'4 7.5
2018-Jun-12 08:01N 35°06' E 129°03'0 0.2
2018-Jun-12 07:30N 35°06' E 129°03'0 0.0
2018-Jun-12 07:00N 35°06' E 129°03'0 0.0
2018-Jun-12 06:31N 35°06' E 129°03'0 0.0
2018-Jun-12 06:01N 35°06' E 129°03'0 0.0
2018-Jun-12 05:31N 35°06' E 129°03'0 0.0
2018-Jun-12 05:01N 35°06' E 129°03'0 0.0
2018-Jun-12 04:30N 35°06' E 129°03'0 0.0
2018-Jun-12 04:00N 35°06' E 129°03'0 0.0
2018-Jun-12 03:31N 35°06' E 129°03'0 0.0
2018-Jun-12 03:01N 35°06' E 129°03'0 0.0
2018-Jun-12 02:30N 35°06' E 129°03'0 0.0
2018-Jun-12 02:01N 35°06' E 129°03'0 0.0
2018-Jun-12 01:31N 35°06' E 129°03'0 0.0
2018-Jun-12 01:00N 35°06' E 129°03'0 0.0
2018-Jun-12 00:31N 35°06' E 129°03'0 0.0
2018-Jun-12 00:00N 35°06' E 129°03'0 0.0
2018-Jun-11 23:31N 35°06' E 129°03'0 0.0
2018-Jun-11 23:00N 35°06' E 129°03'0 0.0
2018-Jun-11 22:31N 35°06' E 129°03'0 0.0
2018-Jun-11 22:01N 35°06' E 129°03'0 0.0
2018-Jun-11 21:31N 35°06' E 129°03'0 0.0
2018-Jun-11 21:01N 35°06' E 129°03'0 0.0
2018-Jun-11 20:30N 35°06' E 129°03'0 0.0
2018-Jun-11 20:00N 35°06' E 129°03'0 0.0
2018-Jun-11 19:30N 35°06' E 129°03'0 0.0
2018-Jun-11 19:00N 35°06' E 129°03'0 0.0
2018-Jun-11 18:30N 35°06' E 129°03'0 0.0
2018-Jun-11 18:00N 35°06' E 129°03'0 0.0
2018-Jun-11 17:30N 35°06' E 129°03'0 0.0
2018-Jun-11 16:59N 35°06' E 129°03'0 0.0
2018-Jun-11 16:30N 35°06' E 129°03'0 0.0
2018-Jun-11 16:00N 35°06' E 129°03'0 0.0
2018-Jun-11 15:30N 35°06' E 129°03'0 0.0
2018-Jun-11 14:59N 35°06' E 129°03'0 0.0
2018-Jun-11 14:30N 35°06' E 129°03'0 0.0
2018-Jun-11 14:00N 35°06' E 129°03'0 0.0
2018-Jun-11 13:30N 35°06' E 129°03'0 0.0
2018-Jun-11 13:00N 35°06' E 129°03'0 0.0
2018-Jun-11 12:30N 35°06' E 129°03'0 0.0
2018-Jun-11 12:00N 35°06' E 129°03'0 0.0
2018-Jun-11 11:30N 35°06' E 129°03'0 0.0
2018-Jun-11 11:00N 35°06' E 129°03'0 0.0
2018-Jun-11 10:30N 35°06' E 129°03'0 0.0
2018-Jun-11 10:00N 35°06' E 129°03'0 0.0
2018-Jun-11 09:30N 35°06' E 129°03'0 0.0
2018-Jun-11 09:00N 35°06' E 129°03'0 0.0
2018-Jun-11 08:28N 35°06' E 129°03'0 0.0
2018-Jun-11 08:00N 35°06' E 129°03'0 0.0
2018-Jun-11 07:30N 35°06' E 129°03'0 0.0
2018-Jun-11 07:00N 35°06' E 129°03'0 0.0
2018-Jun-11 06:30N 35°06' E 129°03'0 0.0
2018-Jun-11 06:00N 35°06' E 129°03'0 0.0
2018-Jun-11 05:30N 35°06' E 129°03'0 0.0
2018-Jun-11 05:00N 35°06' E 129°03'0 0.0
2018-Jun-11 04:30N 35°06' E 129°03'0 0.0
2018-Jun-11 04:00N 35°06' E 129°03'0 0.0
2018-Jun-11 03:30N 35°06' E 129°03'0 0.0
2018-Jun-11 03:00N 35°06' E 129°03'0 0.0
2018-Jun-11 02:30N 35°06' E 129°03'0 0.0
2018-Jun-11 02:00N 35°06' E 129°03'0 0.0
2018-Jun-11 01:29N 35°06' E 129°03'0 0.0
2018-Jun-11 01:00N 35°06' E 129°03'0 0.0
2018-Jun-11 00:30N 35°06' E 129°03'0 0.0
2018-Jun-10 23:59N 35°06' E 129°03'0 0.0
2018-Jun-10 23:30N 35°06' E 129°03'0 0.0
2018-Jun-10 23:00N 35°06' E 129°03'0 0.0
2018-Jun-10 22:30N 35°06' E 129°03'0 0.0
2018-Jun-10 22:00N 35°06' E 129°03'0 0.0
2018-Jun-10 21:30N 35°06' E 129°03'0 0.0
2018-Jun-10 21:00N 35°06' E 129°03'0 0.0
2018-Jun-10 20:28N 35°06' E 129°03'0 0.0
2018-Jun-10 20:00N 35°06' E 129°03'0 0.0
2018-Jun-10 19:30N 35°06' E 129°03'0 0.0
2018-Jun-10 19:00N 35°06' E 129°03'0 0.0
2018-Jun-10 18:30N 35°06' E 129°03'0 0.0
2018-Jun-10 18:00N 35°06' E 129°03'0 0.0
2018-Jun-10 17:30N 35°06' E 129°03'2 4.1
2018-Jun-10 17:00N 35°06' E 129°05'  
Track history (hours):
 
Tides and Currents Weather Stations Pressure Air Temp Water Temp Dewpoint Dewpoint Depression Visibility Wind Speed Wind Dir Waves Ship Positions

Sky Glory

Last reported at 2018-Jun-19 18:27 UTC. Time now 2018-Jun-19 18:27 UTC.
Position N 34°37' E 134°59'.

Length 101 m; draft 5.8 m.

Type: Cargo ship. MMSI: 441654000.

Date/timePositionNaut miles runAvg speedWind from/ knotsBaromVisibWave heightAir tempDewpointWater temp
2018-Jun-19 18:27N 34°37' E 134°59'6 9.9
2018-Jun-19 17:51N 34°35' E 134°53'3 9.0
2018-Jun-19 17:30N 34°33' E 134°49'5 9.3
2018-Jun-19 16:57N 34°31' E 134°43'510.3
2018-Jun-19 16:29N 34°29' E 134°38'510.6
2018-Jun-19 16:00N 34°27' E 134°32'266 9.1
2018-Jun-18 10:39N 35°02' E 129°11'210.8
2018-Jun-18 10:30N 35°03' E 129°09'510.9
2018-Jun-18 10:01N 35°06' E 129°04'1 2.6
2018-Jun-18 09:30N 35°06' E 129°03'0 0.0
2018-Jun-18 09:00N 35°06' E 129°03'0 0.0
2018-Jun-18 08:30N 35°06' E 129°03'0 0.0
2018-Jun-18 08:00N 35°06' E 129°03'0 0.0
2018-Jun-18 07:30N 35°06' E 129°03'0 0.0
2018-Jun-18 07:00N 35°06' E 129°03'0 0.0
2018-Jun-18 06:30N 35°06' E 129°03'0 0.0
2018-Jun-18 06:00N 35°06' E 129°03'0 0.0
2018-Jun-18 05:30N 35°06' E 129°03'0 0.0
2018-Jun-18 05:00N 35°06' E 129°03'0 0.0
2018-Jun-18 04:30N 35°06' E 129°03'0 0.0
2018-Jun-18 04:00N 35°06' E 129°03'0 0.0
2018-Jun-18 03:30N 35°06' E 129°03'0 0.0
2018-Jun-18 03:00N 35°06' E 129°03'0 0.0
2018-Jun-18 02:27N 35°06' E 129°03'0 0.0
2018-Jun-18 02:00N 35°06' E 129°03'0 0.0
2018-Jun-18 01:30N 35°06' E 129°03'0 0.0
2018-Jun-18 01:00N 35°06' E 129°03'0 0.0
2018-Jun-18 00:30N 35°06' E 129°03'0 0.0
2018-Jun-18 00:00N 35°06' E 129°03'0 0.0
2018-Jun-17 23:30N 35°06' E 129°03'0 0.0
2018-Jun-17 23:00N 35°06' E 129°03'0 0.0
2018-Jun-17 22:30N 35°06' E 129°03'0 0.0
2018-Jun-17 22:00N 35°06' E 129°03'0 0.0
2018-Jun-17 21:30N 35°06' E 129°03'0 0.0
2018-Jun-17 21:00N 35°06' E 129°03'0 0.0
2018-Jun-17 20:30N 35°06' E 129°03'0 0.0
2018-Jun-17 20:00N 35°06' E 129°03'0 0.0
2018-Jun-17 19:30N 35°06' E 129°03'0 0.0
2018-Jun-17 19:00N 35°06' E 129°03'0 0.0
2018-Jun-17 18:30N 35°06' E 129°03'0 0.0
2018-Jun-17 18:00N 35°06' E 129°03'0 0.0
2018-Jun-17 17:30N 35°06' E 129°03'0 0.0
2018-Jun-17 17:00N 35°06' E 129°03'0 0.0
2018-Jun-17 16:30N 35°06' E 129°03'0 0.0
2018-Jun-17 16:00N 35°06' E 129°03'0 0.0
2018-Jun-17 15:30N 35°06' E 129°03'0 0.2
2018-Jun-17 15:01N 35°06' E 129°03'3 5.9
2018-Jun-17 14:31N 35°05' E 129°06'255 9.9
2018-Jun-16 12:55N 34°25' E 134°12'613.3
2018-Jun-16 12:29N 34°24' E 134°19'612.3
2018-Jun-16 12:00N 34°26' E 134°26'612.0
2018-Jun-16 11:30N 34°29' E 134°32'612.3
2018-Jun-16 11:00N 34°31' E 134°39'612.5
2018-Jun-16 10:30N 34°33' E 134°46'612.9
2018-Jun-16 10:00N 34°36' E 134°53'710.8
2018-Jun-16 09:19N 34°37' E 135°02'3 8.6
2018-Jun-16 08:59N 34°36' E 135°05'510.3
2018-Jun-16 08:29N 34°36' E 135°12'5 9.5
2018-Jun-16 08:00N 34°39' E 135°16'3 6.7
2018-Jun-16 07:30N 34°42' E 135°13'0 0.1
2018-Jun-16 07:00N 34°42' E 135°13'0 0.0
2018-Jun-16 06:30N 34°42' E 135°13'0 0.0
2018-Jun-16 06:00N 34°42' E 135°13'0 0.0
2018-Jun-16 05:30N 34°42' E 135°13'0 0.0
2018-Jun-16 05:00N 34°42' E 135°13'0 0.0
2018-Jun-16 04:30N 34°42' E 135°13'0 0.0
2018-Jun-16 03:54N 34°42' E 135°13'0 0.0
2018-Jun-16 03:24N 34°42' E 135°13'0 0.0
2018-Jun-16 03:00N 34°42' E 135°13'0 0.0
2018-Jun-16 02:30N 34°42' E 135°13'0 0.0
2018-Jun-16 02:00N 34°42' E 135°13'0 0.0
2018-Jun-16 01:30N 34°42' E 135°13'0 0.0
2018-Jun-16 01:00N 34°42' E 135°13'0 0.0
2018-Jun-16 00:30N 34°42' E 135°13'0 0.0
2018-Jun-16 00:00N 34°42' E 135°13'0 0.0
2018-Jun-15 23:30N 34°42' E 135°13'0 0.0
2018-Jun-15 23:00N 34°42' E 135°13'0 0.0
2018-Jun-15 22:30N 34°42' E 135°13'0 0.0
2018-Jun-15 22:00N 34°42' E 135°13'0 0.0
2018-Jun-15 21:24N 34°42' E 135°13'0 0.0
2018-Jun-15 21:00N 34°42' E 135°13'0 0.0
2018-Jun-15 20:30N 34°42' E 135°13'0 0.0
2018-Jun-15 19:48N 34°42' E 135°13'0 0.0
2018-Jun-15 19:24N 34°42' E 135°13'0 0.0
2018-Jun-15 19:00N 34°42' E 135°13'0 0.0
2018-Jun-15 18:24N 34°42' E 135°13'0 0.0
2018-Jun-15 17:48N 34°42' E 135°13'0 0.0
2018-Jun-15 17:30N 34°42' E 135°13'0 0.0
2018-Jun-15 17:00N 34°42' E 135°13'0 0.0
2018-Jun-15 16:18N 34°42' E 135°13'0 0.0
2018-Jun-15 16:00N 34°42' E 135°13'0 0.0
2018-Jun-15 15:30N 34°42' E 135°13'0 0.0
2018-Jun-15 15:00N 34°42' E 135°13'0 0.0
2018-Jun-15 14:30N 34°42' E 135°13'0 0.0
2018-Jun-15 14:00N 34°42' E 135°13'0 0.0
2018-Jun-15 13:30N 34°42' E 135°13'0 0.0
2018-Jun-15 13:00N 34°42' E 135°13'0 0.0
2018-Jun-15 12:30N 34°42' E 135°13'0 0.0
2018-Jun-15 12:00N 34°42' E 135°13'0 0.0
2018-Jun-15 11:27N 34°42' E 135°13'0 0.0
2018-Jun-15 10:54N 34°42' E 135°13'0 0.0
2018-Jun-15 10:30N 34°42' E 135°13'0 0.0
2018-Jun-15 10:00N 34°42' E 135°13'0 0.0
2018-Jun-15 09:30N 34°42' E 135°13'0 0.0
2018-Jun-15 08:54N 34°42' E 135°13'0 0.0
2018-Jun-15 08:30N 34°42' E 135°13'0 0.0
2018-Jun-15 08:00N 34°42' E 135°13'0 0.0
2018-Jun-15 07:30N 34°42' E 135°13'0 0.0
2018-Jun-15 07:00N 34°42' E 135°13'0 0.0
2018-Jun-15 06:24N 34°42' E 135°13'0 0.0
2018-Jun-15 06:00N 34°42' E 135°13'0 0.0
2018-Jun-15 05:30N 34°42' E 135°13'0 0.0
2018-Jun-15 04:54N 34°42' E 135°13'0 0.0
2018-Jun-15 04:30N 34°42' E 135°13'0 0.0
2018-Jun-15 04:00N 34°42' E 135°13'0 0.0
2018-Jun-15 03:06N 34°42' E 135°13'0 0.0
2018-Jun-15 03:00N 34°42' E 135°13'0 0.0
2018-Jun-15 02:30N 34°42' E 135°13'0 0.0
2018-Jun-15 02:00N 34°42' E 135°13'0 0.0
2018-Jun-15 01:30N 34°42' E 135°13'0 0.0
2018-Jun-15 01:00N 34°42' E 135°13'0 0.0
2018-Jun-15 00:24N 34°42' E 135°13'0 0.0
2018-Jun-14 23:24N 34°42' E 135°13'0 0.0
2018-Jun-14 23:00N 34°42' E 135°13'0 0.0
2018-Jun-14 22:30N 34°42' E 135°13'0 0.0
2018-Jun-14 22:00N 34°42' E 135°13'0 0.0
2018-Jun-14 21:30N 34°42' E 135°13'0 0.0
2018-Jun-14 21:00N 34°42' E 135°13'0 0.0
2018-Jun-14 20:24N 34°42' E 135°13'0 0.0
2018-Jun-14 20:00N 34°42' E 135°13'0 0.0
2018-Jun-14 19:24N 34°42' E 135°13'0 0.0
2018-Jun-14 19:00N 34°42' E 135°13'0 0.0
2018-Jun-14 18:30N 34°42' E 135°13'0 0.0
2018-Jun-14 17:54N 34°42' E 135°13'0 0.0
2018-Jun-14 17:30N 34°42' E 135°13'0 0.0
2018-Jun-14 17:00N 34°42' E 135°13'0 0.0
2018-Jun-14 16:30N 34°42' E 135°13'0 0.0
2018-Jun-14 15:54N 34°42' E 135°13'0 0.0
2018-Jun-14 15:24N 34°42' E 135°13'0 0.0
2018-Jun-14 15:00N 34°42' E 135°13'0 0.0
2018-Jun-14 14:30N 34°42' E 135°13'0 0.0
2018-Jun-14 14:00N 34°42' E 135°13'0 0.0
2018-Jun-14 13:24N 34°42' E 135°13'0 0.0
2018-Jun-14 13:00N 34°42' E 135°13'0 0.0
2018-Jun-14 12:30N 34°42' E 135°13'0 0.0
2018-Jun-14 11:57N 34°42' E 135°13'0 0.0
2018-Jun-14 11:30N 34°42' E 135°13'0 0.0
2018-Jun-14 11:00N 34°42' E 135°13'0 0.0
2018-Jun-14 10:30N 34°42' E 135°13'0 0.0
2018-Jun-14 10:00N 34°42' E 135°13'0 0.0
2018-Jun-14 09:18N 34°42' E 135°13'0 0.0
2018-Jun-14 08:54N 34°42' E 135°13'0 0.0
2018-Jun-14 08:12N 34°42' E 135°13'0 0.0
2018-Jun-14 07:57N 34°42' E 135°13'0 0.1
2018-Jun-14 07:30N 34°42' E 135°13'2 3.0
2018-Jun-14 07:00N 34°40' E 135°15'5 9.5
2018-Jun-14 06:30N 34°38' E 135°20'510.2
2018-Jun-14 06:00N 34°39' E 135°26'0 0.1
2018-Jun-14 02:27N 34°39' E 135°27'0 0.0
2018-Jun-14 01:54N 34°39' E 135°27'0 0.0
2018-Jun-14 01:09N 34°39' E 135°27'0 0.0
2018-Jun-14 00:57N 34°39' E 135°27'0 0.0
2018-Jun-14 00:27N 34°39' E 135°27'0 0.0
2018-Jun-13 23:45N 34°39' E 135°27'0 0.0
2018-Jun-13 23:27N 34°39' E 135°27'0 0.0
2018-Jun-13 22:51N 34°39' E 135°27'0 0.0
2018-Jun-13 22:27N 34°39' E 135°27'0 0.0
2018-Jun-13 22:00N 34°39' E 135°27'1 2.2
2018-Jun-13 21:29N 34°39' E 135°25'3 5.9
2018-Jun-13 21:00N 34°37' E 135°22'0 0.0
2018-Jun-13 20:30N 34°37' E 135°22'0 0.0
2018-Jun-13 20:00N 34°37' E 135°22'0 0.0
2018-Jun-13 19:30N 34°37' E 135°22'0 0.0
2018-Jun-13 18:57N 34°37' E 135°22'0 0.0
2018-Jun-13 18:30N 34°37' E 135°22'2 4.8
2018-Jun-13 18:00N 34°36' E 135°20'611.2
2018-Jun-13 17:30N 34°35' E 135°13'611.9
2018-Jun-13 17:00N 34°35' E 135°06'714.0
2018-Jun-13 16:30N 34°37' E 134°58'712.9
2018-Jun-13 15:59N 34°34' E 134°50'511.0
2018-Jun-13 15:30N 34°32' E 134°45'610.7
2018-Jun-13 14:58N 34°29' E 134°38'510.9
2018-Jun-13 14:28N 34°27' E 134°32'267 9.0
2018-Jun-12 08:56N 35°01' E 129°10'410.3
2018-Jun-12 08:31N 35°04' E 129°07'4 7.5
2018-Jun-12 08:01N 35°06' E 129°03'0 0.2
2018-Jun-12 07:30N 35°06' E 129°03'0 0.0
2018-Jun-12 07:00N 35°06' E 129°03'0 0.0
2018-Jun-12 06:31N 35°06' E 129°03'0 0.0
2018-Jun-12 06:01N 35°06' E 129°03'0 0.0
2018-Jun-12 05:31N 35°06' E 129°03'0 0.0
2018-Jun-12 05:01N 35°06' E 129°03'0 0.0
2018-Jun-12 04:30N 35°06' E 129°03'0 0.0
2018-Jun-12 04:00N 35°06' E 129°03'0 0.0
2018-Jun-12 03:31N 35°06' E 129°03'0 0.0
2018-Jun-12 03:01N 35°06' E 129°03'0 0.0
2018-Jun-12 02:30N 35°06' E 129°03'0 0.0
2018-Jun-12 02:01N 35°06' E 129°03'0 0.0
2018-Jun-12 01:31N 35°06' E 129°03'0 0.0
2018-Jun-12 01:00N 35°06' E 129°03'0 0.0
2018-Jun-12 00:31N 35°06' E 129°03'0 0.0
2018-Jun-12 00:00N 35°06' E 129°03'0 0.0
2018-Jun-11 23:31N 35°06' E 129°03'0 0.0
2018-Jun-11 23:00N 35°06' E 129°03'0 0.0
2018-Jun-11 22:31N 35°06' E 129°03'0 0.0
2018-Jun-11 22:01N 35°06' E 129°03'0 0.0
2018-Jun-11 21:31N 35°06' E 129°03'0 0.0
2018-Jun-11 21:01N 35°06' E 129°03'0 0.0
2018-Jun-11 20:30N 35°06' E 129°03'0 0.0
2018-Jun-11 20:00N 35°06' E 129°03'0 0.0
2018-Jun-11 19:30N 35°06' E 129°03'0 0.0
2018-Jun-11 19:00N 35°06' E 129°03'0 0.0
2018-Jun-11 18:30N 35°06' E 129°03'0 0.0
2018-Jun-11 18:00N 35°06' E 129°03'0 0.0
2018-Jun-11 17:30N 35°06' E 129°03'0 0.0
2018-Jun-11 16:59N 35°06' E 129°03'0 0.0
2018-Jun-11 16:30N 35°06' E 129°03'0 0.0
2018-Jun-11 16:00N 35°06' E 129°03'0 0.0
2018-Jun-11 15:30N 35°06' E 129°03'0 0.0
2018-Jun-11 14:59N 35°06' E 129°03'0 0.0
2018-Jun-11 14:30N 35°06' E 129°03'0 0.0
2018-Jun-11 14:00N 35°06' E 129°03'0 0.0
2018-Jun-11 13:30N 35°06' E 129°03'0 0.0
2018-Jun-11 13:00N 35°06' E 129°03'0 0.0
2018-Jun-11 12:30N 35°06' E 129°03'0 0.0
2018-Jun-11 12:00N 35°06' E 129°03'0 0.0
2018-Jun-11 11:30N 35°06' E 129°03'0 0.0
2018-Jun-11 11:00N 35°06' E 129°03'0 0.0
2018-Jun-11 10:30N 35°06' E 129°03'0 0.0
2018-Jun-11 10:00N 35°06' E 129°03'0 0.0
2018-Jun-11 09:30N 35°06' E 129°03'0 0.0
2018-Jun-11 09:00N 35°06' E 129°03'0 0.0
2018-Jun-11 08:28N 35°06' E 129°03'0 0.0
2018-Jun-11 08:00N 35°06' E 129°03'0 0.0
2018-Jun-11 07:30N 35°06' E 129°03'0 0.0
2018-Jun-11 07:00N 35°06' E 129°03'0 0.0
2018-Jun-11 06:30N 35°06' E 129°03'0 0.0
2018-Jun-11 06:00N 35°06' E 129°03'0 0.0
2018-Jun-11 05:30N 35°06' E 129°03'0 0.0
2018-Jun-11 05:00N 35°06' E 129°03'0 0.0
2018-Jun-11 04:30N 35°06' E 129°03'0 0.0
2018-Jun-11 04:00N 35°06' E 129°03'0 0.0
2018-Jun-11 03:30N 35°06' E 129°03'0 0.0
2018-Jun-11 03:00N 35°06' E 129°03'0 0.0
2018-Jun-11 02:30N 35°06' E 129°03'0 0.0
2018-Jun-11 02:00N 35°06' E 129°03'0 0.0
2018-Jun-11 01:29N 35°06' E 129°03'0 0.0
2018-Jun-11 01:00N 35°06' E 129°03'0 0.0
2018-Jun-11 00:30N 35°06' E 129°03'0 0.0
2018-Jun-10 23:59N 35°06' E 129°03'0 0.0
2018-Jun-10 23:30N 35°06' E 129°03'0 0.0
2018-Jun-10 23:00N 35°06' E 129°03'0 0.0
2018-Jun-10 22:30N 35°06' E 129°03'0 0.0
2018-Jun-10 22:00N 35°06' E 129°03'0 0.0
2018-Jun-10 21:30N 35°06' E 129°03'0 0.0
2018-Jun-10 21:00N 35°06' E 129°03'0 0.0
2018-Jun-10 20:28N 35°06' E 129°03'0 0.0
2018-Jun-10 20:00N 35°06' E 129°03'0 0.0
2018-Jun-10 19:30N 35°06' E 129°03'0 0.0
2018-Jun-10 19:00N 35°06' E 129°03'0 0.0
2018-Jun-10 18:30N 35°06' E 129°03'0 0.0
2018-Jun-10 18:00N 35°06' E 129°03'0 0.0
2018-Jun-10 17:30N 35°06' E 129°03'2 4.1
2018-Jun-10 17:00N 35°06' E 129°05'  

Dump ship's entire track history